createdAt,value
2019-01-26T00:00:08.400Z,93.29
2019-01-26T00:01:08.407Z,93.39
2019-01-26T00:02:08.389Z,93.60
2019-01-26T00:03:08.376Z,93.29
2019-01-26T00:04:08.356Z,93.29
2019-01-26T00:05:08.404Z,93.07
2019-01-26T00:06:08.382Z,93.07
2019-01-26T00:07:08.343Z,93.29
2019-01-26T00:08:08.314Z,93.49
2019-01-26T00:09:08.306Z,93.80
2019-01-26T00:10:08.322Z,93.49
2019-01-26T00:11:08.377Z,93.60
2019-01-26T00:12:08.278Z,93.60
2019-01-26T00:13:08.293Z,93.29
2019-01-26T00:14:08.255Z,93.29
2019-01-26T00:15:08.246Z,93.29
2019-01-26T00:16:08.253Z,93.29
2019-01-26T00:17:08.251Z,93.49
2019-01-26T00:18:08.214Z,93.70
2019-01-26T00:19:08.198Z,93.39
2019-01-26T00:20:08.195Z,93.39
2019-01-26T00:21:08.221Z,93.39
2019-01-26T00:22:08.178Z,93.55
2019-01-26T00:23:08.171Z,93.35
2019-01-26T00:24:08.174Z,93.87
2019-01-26T00:25:08.152Z,93.55
2019-01-26T00:26:08.167Z,93.87
2019-01-26T00:27:08.127Z,93.76
2019-01-26T00:28:08.108Z,93.87
2019-01-26T00:29:08.105Z,93.87
2019-01-26T00:30:08.203Z,93.24
2019-01-26T00:31:08.097Z,93.45
2019-01-26T00:32:08.107Z,93.45
2019-01-26T00:33:08.049Z,93.66
2019-01-26T00:34:08.040Z,93.20
2019-01-26T00:35:08.074Z,93.72
2019-01-26T00:36:08.043Z,94.03
2019-01-26T00:37:08.033Z,93.72
2019-01-26T00:38:08.052Z,94.13
2019-01-26T00:39:08.039Z,94.40
2019-01-26T00:40:08.009Z,93.88
2019-01-26T00:41:08.010Z,94.20
2019-01-26T00:42:07.962Z,94.88
2019-01-26T00:43:07.965Z,94.26
2019-01-26T00:44:07.979Z,94.84
2019-01-26T00:45:07.925Z,95.46
2019-01-26T00:46:07.983Z,94.73
2019-01-26T00:47:07.903Z,95.00
2019-01-26T00:48:07.923Z,94.37
2019-01-26T00:49:07.889Z,94.89
2019-01-26T00:50:07.875Z,94.89
2019-01-26T00:51:07.960Z,95.06
2019-01-26T00:52:07.874Z,94.95
2019-01-26T07:20:43.495Z,90.22
2019-01-26T07:21:43.496Z,90.43
2019-01-26T07:22:43.461Z,89.67
2019-01-26T07:23:43.453Z,89.61
2019-01-26T07:24:43.443Z,89.46
2019-01-26T07:25:43.429Z,89.77
2019-01-26T07:26:43.469Z,89.50
2019-01-26T07:27:43.415Z,89.25
2019-01-26T07:28:43.399Z,89.46
2019-01-26T07:29:43.392Z,89.87
2019-01-26T07:30:43.379Z,89.36
2019-01-26T07:31:43.385Z,89.25
2019-01-26T07:32:43.359Z,89.67
2019-01-26T07:33:43.345Z,88.53
2019-01-26T07:34:43.352Z,88.59
2019-01-26T07:35:43.324Z,88.43
2019-01-26T07:36:43.344Z,88.22
2019-01-26T07:37:43.310Z,88.22
2019-01-26T07:38:43.295Z,87.92
2019-01-26T07:39:43.294Z,87.98
2019-01-26T07:40:43.276Z,87.98
2019-01-26T07:41:43.295Z,87.77
2019-01-26T07:42:43.267Z,87.71
2019-01-26T07:43:43.243Z,87.92
2019-01-26T07:44:43.257Z,87.81
2019-01-26T07:45:43.230Z,88.74
2019-01-26T07:46:43.228Z,88.22
2019-01-26T07:47:43.212Z,88.53
2019-01-26T07:48:44.544Z,88.64
2019-01-26T07:49:43.184Z,88.32
2019-01-26T07:50:43.169Z,88.32
2019-01-26T07:51:43.177Z,88.32
2019-01-26T07:52:43.151Z,88.43
2019-01-26T07:53:43.151Z,88.43
2019-01-26T07:54:43.135Z,88.22
2019-01-26T07:55:43.121Z,88.12
2019-01-26T07:56:43.146Z,88.22
2019-01-26T07:57:43.099Z,88.29
2019-01-26T07:58:43.092Z,88.39
2019-01-26T07:59:43.076Z,88.02
2019-01-26T08:00:43.117Z,88.29
2019-01-26T08:01:43.061Z,88.32
2019-01-26T08:02:43.062Z,88.22
2019-01-26T08:03:43.035Z,87.92
2019-01-26T08:04:43.029Z,88.02
2019-01-26T08:05:43.027Z,88.53
2019-01-26T08:06:43.016Z,88.02
2019-01-26T08:07:43.021Z,87.92
2019-01-26T08:08:42.986Z,87.98
2019-01-26T08:09:42.974Z,87.87
2019-01-26T08:10:42.966Z,88.02
2019-01-26T08:11:42.965Z,88.12
2019-01-26T08:12:42.974Z,88.64
2019-01-26T08:13:42.937Z,88.22
2019-01-26T08:14:42.923Z,88.39
2019-01-26T08:15:42.912Z,88.22
2019-01-26T08:16:42.903Z,88.49
2019-01-26T08:17:50.965Z,88.02
2019-01-26T08:18:42.884Z,88.32
2019-01-26T08:19:42.872Z,87.56
2019-01-26T08:20:42.862Z,87.77
2019-01-26T08:21:42.852Z,87.66
2019-01-26T08:22:42.840Z,87.66
2019-01-26T08:23:42.849Z,87.77
2019-01-26T08:24:42.827Z,87.46
2019-01-26T08:25:42.823Z,88.08
2019-01-26T08:26:42.805Z,87.46
2019-01-26T08:27:42.789Z,87.46
2019-01-26T08:28:42.806Z,87.46
2019-01-26T08:29:42.772Z,87.56
2019-01-26T08:30:42.788Z,87.66
2019-01-26T08:31:42.748Z,87.35
2019-01-26T08:32:42.741Z,87.87
2019-01-26T08:33:42.765Z,87.66
2019-01-26T08:34:42.728Z,87.87
2019-01-26T08:35:42.706Z,87.56
2019-01-26T08:36:42.701Z,87.56
2019-01-26T08:37:42.689Z,87.35
2019-01-26T08:38:42.696Z,87.87
2019-01-26T08:39:42.672Z,87.87
2019-01-26T08:40:42.678Z,87.56
2019-01-26T08:41:42.641Z,87.60
2019-01-26T08:42:42.647Z,87.46
2019-01-26T08:43:42.647Z,87.35
2019-01-26T08:44:42.611Z,87.35
2019-01-26T08:45:42.608Z,87.35
2019-01-26T08:46:42.590Z,87.56
2019-01-26T08:47:42.578Z,87.15
2019-01-26T08:48:42.582Z,87.46
2019-01-26T08:49:42.557Z,87.35
2019-01-26T08:50:42.547Z,87.05
2019-01-26T08:51:42.542Z,86.94
2019-01-26T08:52:42.524Z,87.15
2019-01-26T08:53:42.552Z,87.15
2019-01-26T08:54:42.511Z,87.05
2019-01-26T08:55:42.503Z,87.15
2019-01-26T08:56:42.483Z,86.84
2019-01-26T08:57:42.479Z,86.80
2019-01-26T08:58:42.460Z,87.05
2019-01-26T08:59:42.466Z,87.05
2019-01-26T09:00:42.448Z,87.35
2019-01-26T09:01:42.429Z,86.70
2019-01-26T09:02:42.418Z,87.32
2019-01-26T09:03:42.427Z,87.32
2019-01-26T09:04:42.430Z,86.08
2019-01-26T09:05:42.391Z,86.60
2019-01-26T09:06:42.377Z,86.29
2019-01-26T09:07:42.375Z,86.29
2019-01-26T09:08:42.353Z,86.29
2019-01-26T09:09:42.362Z,85.57
2019-01-26T09:10:42.342Z,86.29
2019-01-26T09:11:42.322Z,85.87
2019-01-26T09:12:42.312Z,85.87
2019-01-26T09:13:42.315Z,85.87
2019-01-26T09:14:42.313Z,85.87
2019-01-26T09:15:42.282Z,85.87
2019-01-26T09:16:42.279Z,85.77
2019-01-26T09:17:42.313Z,85.77
2019-01-26T09:18:42.249Z,85.57
2019-01-26T09:19:42.288Z,85.87
2019-01-26T09:20:42.231Z,85.77
2019-01-26T09:21:42.224Z,85.57
2019-01-26T09:22:42.207Z,84.94
2019-01-26T09:23:42.198Z,85.97
2019-01-26T09:24:42.190Z,85.97
2019-01-26T09:25:42.192Z,85.97
2019-01-26T09:26:42.194Z,85.97
2019-01-26T09:27:42.161Z,85.77
2019-01-26T09:28:42.142Z,85.97
2019-01-26T09:29:42.648Z,85.87
2019-01-26T09:30:42.136Z,85.77
2019-01-26T09:31:42.118Z,85.57
2019-01-26T09:32:42.097Z,85.57
2019-01-26T09:33:42.090Z,85.87
2019-01-26T09:34:42.076Z,85.05
2019-01-26T09:35:42.098Z,85.46
2019-01-26T09:36:42.055Z,85.77
2019-01-26T09:37:42.049Z,85.87
2019-01-26T09:38:42.035Z,85.97
2019-01-26T09:39:42.034Z,85.57
2019-01-26T09:40:42.036Z,85.77
2019-01-26T09:41:42.003Z,85.57
2019-01-26T09:42:41.997Z,85.87
2019-01-26T09:43:41.987Z,85.05
2019-01-26T09:44:41.973Z,84.74
2019-01-26T09:45:41.985Z,84.94
2019-01-26T09:46:41.947Z,84.91
2019-01-26T09:47:41.937Z,85.11
2019-01-26T09:48:46.190Z,84.80
2019-01-26T09:49:41.936Z,84.59
2019-01-26T09:50:41.927Z,84.80
2019-01-26T09:51:41.954Z,84.91
2019-01-26T09:52:41.887Z,85.01
2019-01-26T09:53:41.876Z,84.91
2019-01-26T09:54:41.877Z,84.70
2019-01-26T09:55:41.870Z,84.29
2019-01-26T09:56:41.850Z,84.19
2019-01-26T09:57:41.835Z,83.56
2019-01-26T09:58:41.850Z,83.77
2019-01-26T09:59:41.813Z,84.08
2019-01-26T10:00:41.834Z,84.80
2019-01-26T10:01:41.795Z,84.91
2019-01-26T10:02:41.818Z,84.59
2019-01-26T10:03:41.789Z,84.70
2019-01-26T10:04:41.768Z,84.80
2019-01-26T10:05:41.778Z,84.80
2019-01-26T10:06:41.928Z,84.49
2019-01-26T10:07:41.729Z,84.56
2019-01-26T10:08:41.727Z,84.45
2019-01-26T10:09:41.704Z,84.66
2019-01-26T10:10:41.709Z,84.66
2019-01-26T10:11:41.686Z,84.91
2019-01-26T10:12:41.691Z,84.80
2019-01-26T10:13:41.659Z,84.91
2019-01-26T10:14:41.653Z,84.35
2019-01-26T10:15:41.689Z,84.56
2019-01-26T10:16:41.662Z,84.05
2019-01-26T10:17:45.736Z,84.14
2019-01-26T10:18:41.610Z,83.94
2019-01-26T10:19:41.604Z,84.25
2019-01-26T10:20:41.590Z,83.94
2019-01-26T10:21:41.595Z,83.94
2019-01-26T10:22:41.563Z,83.63
2019-01-26T10:23:41.560Z,83.63
2019-01-26T10:24:41.545Z,84.31
2019-01-26T10:25:48.415Z,84.42
2019-01-26T10:26:42.570Z,83.84
2019-01-26T10:27:41.511Z,84.05
2019-01-26T10:28:41.542Z,84.45
2019-01-26T10:29:41.491Z,84.14
2019-01-26T10:30:41.481Z,84.11
2019-01-26T10:31:41.495Z,84.21
2019-01-26T10:32:41.461Z,83.90
2019-01-26T10:33:41.447Z,83.70
2019-01-26T10:34:41.451Z,83.39
2019-01-26T10:35:41.437Z,83.59
2019-01-26T10:36:41.441Z,83.59
2019-01-26T10:37:41.403Z,83.59
2019-01-26T10:38:41.406Z,83.90
2019-01-26T10:39:41.412Z,83.80
2019-01-26T10:40:41.371Z,84.00
2019-01-26T10:41:41.375Z,83.80
2019-01-26T10:42:41.349Z,83.80
2019-01-26T10:43:41.339Z,83.18
2019-01-26T10:44:41.360Z,82.87
2019-01-26T10:45:41.319Z,82.87
2019-01-26T10:46:41.326Z,83.18
2019-01-26T10:47:41.294Z,83.59
2019-01-26T10:48:41.290Z,82.87
2019-01-26T10:49:41.284Z,83.39
2019-01-26T10:50:41.265Z,83.49
2019-01-26T10:51:41.274Z,83.35
2019-01-26T10:52:41.241Z,82.53
2019-01-26T10:53:41.232Z,82.63
2019-01-26T10:54:41.225Z,82.48
2019-01-26T10:55:41.223Z,82.07
2019-01-26T10:56:41.233Z,82.18
2019-01-26T10:57:41.187Z,81.91
2019-01-26T10:58:41.190Z,82.07
2019-01-26T10:59:41.176Z,82.39
2019-01-26T11:00:41.169Z,81.97
2019-01-26T11:01:41.150Z,81.32
2019-01-26T11:02:41.149Z,81.62
2019-01-26T11:03:41.126Z,81.42
2019-01-26T11:04:41.118Z,81.46
2019-01-26T11:05:41.106Z,81.83
2019-01-26T11:06:41.096Z,81.62
2019-01-26T11:07:41.152Z,81.42
2019-01-26T11:08:41.073Z,81.42
2019-01-26T11:09:41.062Z,81.42
2019-01-26T11:10:41.046Z,81.32
2019-01-26T11:11:41.036Z,80.60
2019-01-26T11:12:41.056Z,80.80
2019-01-26T11:13:41.033Z,81.32
2019-01-26T11:14:41.006Z,81.42
2019-01-26T11:15:41.007Z,80.60
2019-01-26T11:16:40.983Z,81.21
2019-01-26T11:17:40.994Z,81.21
2019-01-26T11:18:40.963Z,81.11
2019-01-26T11:19:40.949Z,81.52
2019-01-26T11:20:40.938Z,81.01
2019-01-26T11:21:40.936Z,81.42
2019-01-26T11:22:40.934Z,80.70
2019-01-26T11:23:40.995Z,80.39
2019-01-26T11:24:40.898Z,81.62
2019-01-26T11:25:40.884Z,81.35
2019-01-26T11:26:40.885Z,81.05
2019-01-26T11:27:40.879Z,81.15
2019-01-26T11:28:40.852Z,81.15
2019-01-26T11:29:40.842Z,81.05
2019-01-26T11:30:40.840Z,81.46
2019-01-26T11:31:40.825Z,81.05
2019-01-26T11:32:40.828Z,81.67
2019-01-26T11:33:40.799Z,81.46
2019-01-26T11:34:40.787Z,81.76
2019-01-26T11:35:40.783Z,81.67
2019-01-26T11:36:40.767Z,81.46
2019-01-26T11:37:40.792Z,81.56
2019-01-26T11:38:40.745Z,81.67
2019-01-26T11:39:40.736Z,81.21
2019-01-26T11:40:40.745Z,80.74
2019-01-26T11:41:40.716Z,80.53
2019-01-26T11:42:40.840Z,81.01
2019-01-26T11:43:40.688Z,81.11
2019-01-26T11:44:40.689Z,80.70
2019-01-26T11:45:40.672Z,80.60
2019-01-26T11:46:40.656Z,80.39
2019-01-26T11:47:40.671Z,80.19
2019-01-26T11:48:40.636Z,80.25
2019-01-26T11:49:40.624Z,79.63
2019-01-26T11:50:40.617Z,79.70
2019-01-26T11:51:40.612Z,79.39
2019-01-26T11:52:40.616Z,79.29
2019-01-26T11:53:40.581Z,78.88
2019-01-26T11:54:40.587Z,78.85
2019-01-26T11:55:40.563Z,78.88
2019-01-26T11:56:40.547Z,79.19
2019-01-26T11:57:40.563Z,78.53
2019-01-26T11:58:40.533Z,78.53
2019-01-26T11:59:40.516Z,78.78
2019-01-26T12:00:40.505Z,78.67
2019-01-26T12:01:40.495Z,78.36
2019-01-26T12:02:40.483Z,78.47
2019-01-26T12:03:40.494Z,77.95
2019-01-26T12:04:40.468Z,78.23
2019-01-26T12:05:40.454Z,77.92
2019-01-26T12:06:40.440Z,78.02
2019-01-26T12:07:40.441Z,78.33
2019-01-26T12:08:40.439Z,78.53
2019-01-26T12:09:40.429Z,78.33
2019-01-26T12:10:40.407Z,77.88
2019-01-26T12:11:40.386Z,77.88
2019-01-26T12:12:40.377Z,77.47
2019-01-26T12:13:40.383Z,77.26
2019-01-26T12:14:40.357Z,76.31
2019-01-26T12:15:40.351Z,75.96
2019-01-26T12:16:40.343Z,76.14
2019-01-26T12:17:40.337Z,74.53
2019-01-26T12:18:40.331Z,75.35
2019-01-26T12:19:40.301Z,75.90
2019-01-26T12:20:40.294Z,75.90
2019-01-26T12:21:40.300Z,76.07
2019-01-26T12:22:40.264Z,74.63
2019-01-26T12:23:40.274Z,74.77
2019-01-26T12:24:40.245Z,74.98
2019-01-26T12:25:40.235Z,75.93
2019-01-26T12:26:40.225Z,75.93
2019-01-26T12:27:40.227Z,76.14
2019-01-26T12:28:40.234Z,75.93
2019-01-26T12:29:40.191Z,76.34
2019-01-26T12:30:40.177Z,76.34
2019-01-26T12:31:40.176Z,76.55
2019-01-26T12:32:40.158Z,76.89
2019-01-26T12:33:40.142Z,76.24
2019-01-26T12:34:40.146Z,76.89
2019-01-26T12:35:40.123Z,76.79
2019-01-26T12:36:40.118Z,77.00
2019-01-26T12:37:40.100Z,77.10
2019-01-26T12:38:40.091Z,76.89
2019-01-26T12:39:40.091Z,76.82
2019-01-26T12:40:40.068Z,78.27
2019-01-26T12:41:40.052Z,78.06
2019-01-26T12:42:40.042Z,77.95
2019-01-26T12:43:40.039Z,77.95
2019-01-26T12:44:40.061Z,78.30
2019-01-26T12:45:40.011Z,78.30
2019-01-26T12:46:40.102Z,78.16
2019-01-26T12:47:40.001Z,77.89
2019-01-26T12:48:39.975Z,78.30
2019-01-26T12:49:39.980Z,77.99
2019-01-26T12:50:39.956Z,78.27
2019-01-26T12:51:39.943Z,78.40
2019-01-26T12:52:39.932Z,78.30
2019-01-26T12:53:39.927Z,78.96
2019-01-26T12:54:39.955Z,78.92
2019-01-26T12:55:39.900Z,78.75
2019-01-26T12:56:39.889Z,79.26
2019-01-26T12:57:39.877Z,79.22
2019-01-26T12:58:39.874Z,79.16
2019-01-26T12:59:40.167Z,79.47
2019-01-26T13:00:39.853Z,79.77
2019-01-26T13:01:39.833Z,79.57
2019-01-26T13:02:39.888Z,79.47
2019-01-26T13:03:39.813Z,79.77
2019-01-26T13:04:39.832Z,79.77
2019-01-26T13:05:39.833Z,79.77
2019-01-26T13:06:39.782Z,79.67
2019-01-26T13:07:39.769Z,79.77
2019-01-26T13:08:39.784Z,79.77
2019-01-26T13:09:39.767Z,79.05
2019-01-26T13:10:39.749Z,79.26
2019-01-26T13:11:39.730Z,79.26
2019-01-26T13:12:39.720Z,79.16
2019-01-26T13:13:39.704Z,78.96
2019-01-26T13:14:39.712Z,79.05
2019-01-26T13:15:39.685Z,79.36
2019-01-26T13:16:39.753Z,79.05
2019-01-26T13:17:39.692Z,79.05
2019-01-26T13:18:39.651Z,79.05
2019-01-26T13:19:39.706Z,78.85
2019-01-26T13:20:39.634Z,79.05
2019-01-26T13:21:39.634Z,78.64
2019-01-26T13:22:39.614Z,79.16
2019-01-26T13:23:39.601Z,79.16
2019-01-26T13:24:39.585Z,79.16
2019-01-26T13:25:39.609Z,78.85
2019-01-26T13:26:39.565Z,79.16
2019-01-26T13:27:39.558Z,79.47
2019-01-26T13:28:39.541Z,79.05
2019-01-26T13:29:39.590Z,79.05
2019-01-26T13:30:39.538Z,79.05
2019-01-26T13:31:39.513Z,78.96
2019-01-26T13:32:39.503Z,79.16
2019-01-26T13:33:39.498Z,79.26
2019-01-26T13:34:39.485Z,79.26
2019-01-26T13:35:39.494Z,78.75
2019-01-26T13:36:39.459Z,78.75
2019-01-26T13:37:39.448Z,78.54
2019-01-26T13:38:39.542Z,78.44
2019-01-26T13:39:39.425Z,78.75
2019-01-26T13:40:39.544Z,78.75
2019-01-26T13:41:39.402Z,78.75
2019-01-26T13:42:39.390Z,78.64
2019-01-26T13:43:39.381Z,78.85
2019-01-26T13:44:39.376Z,79.16
2019-01-26T13:45:39.358Z,78.96
2019-01-26T13:46:39.389Z,79.05
2019-01-26T13:47:39.337Z,79.26
2019-01-26T13:48:39.330Z,78.96
2019-01-26T13:49:44.037Z,78.54
2019-01-26T13:50:39.312Z,78.64
2019-01-26T13:51:39.316Z,78.96
2019-01-26T13:52:39.284Z,78.54
2019-01-26T13:53:39.274Z,78.64
2019-01-26T13:54:39.264Z,78.85
2019-01-26T13:55:39.251Z,78.75
2019-01-26T13:56:39.257Z,78.85
2019-01-26T13:57:39.228Z,78.96
2019-01-26T13:58:39.220Z,78.75
2019-01-26T13:59:39.242Z,78.13
2019-01-26T14:00:39.198Z,78.13
2019-01-26T14:01:39.200Z,77.82
2019-01-26T14:02:39.181Z,78.44
2019-01-26T14:03:39.175Z,78.54
2019-01-26T14:04:39.155Z,78.40
2019-01-26T14:05:39.143Z,78.23
2019-01-26T14:06:39.154Z,77.99
2019-01-26T14:07:39.133Z,77.99
2019-01-26T14:08:39.119Z,78.09
2019-01-26T14:09:39.109Z,78.40
2019-01-26T14:10:39.096Z,78.03
2019-01-26T14:11:39.102Z,77.82
2019-01-26T14:12:39.066Z,78.03
2019-01-26T14:13:39.059Z,76.86
2019-01-26T14:14:39.051Z,77.00
2019-01-26T14:15:39.037Z,76.86
2019-01-26T14:16:39.043Z,77.00
2019-01-26T14:17:39.022Z,76.65
2019-01-26T14:18:39.007Z,76.55
2019-01-26T14:19:38.998Z,76.45
2019-01-26T14:20:39.002Z,76.04
2019-01-26T14:21:39.025Z,76.14
2019-01-26T14:22:38.961Z,76.25
2019-01-26T14:23:38.947Z,76.14
2019-01-26T14:24:38.935Z,75.52
2019-01-26T14:25:38.935Z,76.45
2019-01-26T14:26:38.919Z,76.35
2019-01-26T14:27:38.939Z,76.04
2019-01-26T14:28:38.892Z,75.49
2019-01-26T14:29:38.888Z,76.21
2019-01-26T14:30:38.870Z,76.25
2019-01-26T14:31:38.864Z,75.42
2019-01-26T14:32:38.883Z,75.70
2019-01-26T14:33:38.837Z,74.67
2019-01-26T14:34:38.829Z,74.98
2019-01-26T14:35:38.815Z,75.21
2019-01-26T14:36:38.817Z,74.80
2019-01-26T14:37:38.876Z,74.57
2019-01-26T14:38:38.789Z,74.80
2019-01-26T14:39:39.908Z,75.12
2019-01-26T14:40:38.770Z,74.60
2019-01-26T14:41:38.749Z,74.87
2019-01-26T14:42:38.759Z,74.70
2019-01-26T14:43:38.730Z,75.01
2019-01-26T14:44:38.726Z,73.88
2019-01-26T14:45:38.709Z,74.29
2019-01-26T14:46:38.698Z,74.40
2019-01-26T14:47:38.715Z,74.40
2019-01-26T14:48:38.677Z,74.70
2019-01-26T14:49:38.730Z,74.60
2019-01-26T14:50:38.656Z,73.36
2019-01-26T14:51:38.662Z,73.13
2019-01-26T14:52:38.630Z,72.92
2019-01-26T14:53:38.642Z,73.27
2019-01-26T14:54:38.612Z,73.06
2019-01-26T14:55:38.611Z,73.23
2019-01-26T14:56:38.603Z,73.02
2019-01-26T14:57:38.579Z,72.85
2019-01-26T14:58:38.590Z,73.27
2019-01-26T14:59:38.554Z,73.27
2019-01-26T15:00:38.546Z,73.36
2019-01-26T15:01:38.535Z,72.85
2019-01-26T15:02:38.542Z,72.92
2019-01-26T15:03:38.529Z,72.65
2019-01-26T15:04:38.506Z,72.55
2019-01-26T15:05:38.491Z,72.13
2019-01-26T15:06:38.479Z,72.24
2019-01-26T15:07:38.470Z,72.44
2019-01-26T15:08:38.589Z,72.65
2019-01-26T15:09:38.455Z,72.55
2019-01-26T15:10:38.435Z,72.85
2019-01-26T15:11:38.426Z,72.96
2019-01-26T15:12:38.415Z,72.75
2019-01-26T15:13:39.452Z,72.96
2019-01-26T15:14:38.421Z,72.55
2019-01-26T15:15:38.388Z,73.57
2019-01-26T15:16:38.371Z,72.85
2019-01-26T15:17:38.368Z,72.85
2019-01-26T15:18:38.349Z,72.75
2019-01-26T15:19:38.358Z,73.27
2019-01-26T15:20:38.348Z,73.68
2019-01-26T15:21:38.335Z,74.84
2019-01-26T15:22:38.307Z,74.63
2019-01-26T15:23:38.304Z,74.53
2019-01-26T15:24:38.308Z,73.81
2019-01-26T15:25:38.274Z,74.22
2019-01-26T15:26:38.288Z,73.91
2019-01-26T15:27:38.259Z,74.02
2019-01-26T15:28:42.904Z,74.95
2019-01-26T15:29:41.925Z,74.95
2019-01-26T15:30:39.067Z,74.95
2019-01-26T15:31:38.211Z,74.22
2019-01-26T15:32:38.276Z,74.22
2019-01-26T15:33:38.223Z,74.63
2019-01-26T15:34:38.191Z,74.84
2019-01-26T15:35:38.165Z,74.74
2019-01-26T15:36:38.157Z,75.15
2019-01-26T15:37:38.148Z,74.84
2019-01-26T15:38:38.131Z,74.43
2019-01-26T15:39:38.258Z,74.84
2019-01-26T15:40:38.118Z,75.18
2019-01-26T15:41:38.102Z,74.77
2019-01-26T15:42:38.089Z,75.18
2019-01-26T15:43:38.091Z,74.87
2019-01-26T15:44:38.075Z,75.08
2019-01-26T15:45:38.075Z,75.18
2019-01-26T15:46:38.058Z,74.67
2019-01-26T15:47:38.039Z,75.39
2019-01-26T15:48:38.024Z,75.18
2019-01-26T15:49:38.025Z,75.18
2019-01-26T15:50:38.027Z,75.39
2019-01-26T15:51:37.992Z,75.39
2019-01-26T15:52:37.992Z,75.63
2019-01-26T15:53:37.970Z,75.59
2019-01-26T15:54:37.960Z,75.18
2019-01-26T15:55:37.977Z,75.39
2019-01-26T15:56:38.150Z,75.08
2019-01-26T15:57:37.927Z,75.08
2019-01-26T15:58:37.918Z,75.49
2019-01-26T15:59:37.904Z,75.49
2019-01-26T16:00:38.197Z,75.63
2019-01-26T16:01:37.894Z,75.49
2019-01-26T16:02:37.875Z,76.56
2019-01-26T16:03:37.864Z,75.59
2019-01-26T16:04:37.850Z,75.94
2019-01-26T16:05:37.854Z,75.59
2019-01-26T16:06:37.849Z,75.80
2019-01-26T16:07:37.833Z,75.59
2019-01-26T16:08:37.806Z,75.42
2019-01-26T16:09:37.800Z,75.94
2019-01-26T16:10:37.794Z,75.73
2019-01-26T16:11:37.791Z,75.63
2019-01-26T16:12:37.771Z,76.14
2019-01-26T16:13:37.774Z,75.63
2019-01-26T16:14:37.745Z,75.73
2019-01-26T16:15:37.732Z,75.52
2019-01-26T16:16:37.743Z,75.52
2019-01-26T16:17:37.713Z,76.39
2019-01-26T16:18:37.715Z,76.28
2019-01-26T16:19:37.704Z,76.70
2019-01-26T16:20:37.678Z,77.35
2019-01-26T16:21:37.684Z,78.17
2019-01-26T16:22:37.657Z,78.79
2019-01-26T16:23:37.645Z,79.00
2019-01-26T16:24:37.649Z,79.03
2019-01-26T16:25:37.628Z,80.06
2019-01-26T16:26:37.645Z,80.58
2019-01-26T16:27:37.601Z,81.20
2019-01-26T16:28:37.593Z,80.99
2019-01-26T16:29:37.586Z,80.58
2019-01-26T16:30:37.570Z,80.20
2019-01-26T16:31:37.576Z,80.00
2019-01-26T16:32:37.548Z,80.10
2019-01-26T16:33:37.537Z,79.79
2019-01-26T16:34:37.535Z,80.30
2019-01-26T16:35:37.526Z,79.79
2019-01-26T16:36:37.533Z,80.30
2019-01-26T16:37:37.505Z,80.20
2019-01-26T16:38:37.484Z,80.10
2019-01-26T16:39:37.473Z,80.20
2019-01-26T16:40:37.475Z,79.90
2019-01-26T16:41:37.482Z,79.58
2019-01-26T16:42:37.442Z,79.38
2019-01-26T16:43:37.441Z,78.55
2019-01-26T16:44:37.420Z,79.17
2019-01-26T16:45:37.811Z,78.97
2019-01-26T16:46:37.464Z,78.62
2019-01-26T16:47:37.388Z,78.45
2019-01-26T16:48:37.379Z,78.14
2019-01-26T16:49:37.386Z,78.83
2019-01-26T16:50:37.356Z,78.24
2019-01-26T16:51:37.389Z,78.66
2019-01-26T16:52:37.354Z,77.73
2019-01-26T16:53:37.327Z,78.66
2019-01-26T16:54:37.332Z,77.48
2019-01-26T16:55:37.316Z,77.38
2019-01-26T16:56:37.293Z,77.59
2019-01-26T16:57:37.300Z,77.18
2019-01-26T16:58:37.337Z,76.90
2019-01-26T16:59:37.266Z,76.87
2019-01-26T17:00:37.265Z,77.08
2019-01-26T17:01:37.263Z,77.11
2019-01-26T17:02:37.255Z,77.38
2019-01-26T17:03:37.221Z,76.87
2019-01-26T17:04:37.210Z,77.18
2019-01-26T17:05:37.196Z,77.31
2019-01-26T17:06:37.195Z,76.97
2019-01-26T17:07:37.197Z,77.18
2019-01-26T17:08:37.168Z,76.87
2019-01-26T17:09:37.159Z,76.59
2019-01-26T17:10:37.146Z,76.66
2019-01-26T17:11:37.137Z,76.76
2019-01-26T17:12:37.144Z,76.66
2019-01-26T17:13:37.118Z,76.87
2019-01-26T17:14:37.103Z,77.42
2019-01-26T17:15:37.108Z,77.90
2019-01-26T17:16:37.084Z,78.41
2019-01-26T17:17:37.111Z,77.69
2019-01-26T17:18:37.251Z,77.62
2019-01-26T17:19:37.063Z,77.90
2019-01-26T17:20:37.043Z,77.73
2019-01-26T17:21:37.040Z,78.45
2019-01-26T17:22:37.018Z,78.55
2019-01-26T17:23:37.027Z,78.66
2019-01-26T17:24:36.998Z,78.86
2019-01-26T17:25:37.004Z,79.17
2019-01-26T17:26:36.986Z,78.97
2019-01-26T17:27:36.968Z,79.17
2019-01-26T17:28:36.990Z,79.48
2019-01-26T17:29:36.947Z,79.38
2019-01-26T17:30:36.935Z,79.69
2019-01-26T17:31:36.940Z,79.83
2019-01-26T17:32:36.920Z,79.72
2019-01-26T17:33:36.948Z,80.55
2019-01-26T17:34:36.894Z,80.24
2019-01-26T17:35:36.884Z,79.93
2019-01-26T17:36:36.892Z,80.04
2019-01-26T17:37:36.866Z,79.83
2019-01-26T17:38:36.875Z,80.14
2019-01-26T17:39:36.844Z,80.44
2019-01-26T17:40:36.833Z,80.34
2019-01-26T17:41:36.828Z,79.83
2019-01-26T17:42:36.811Z,79.83
2019-01-26T17:43:36.831Z,80.04
2019-01-26T17:44:36.799Z,80.24
2019-01-26T17:45:36.779Z,79.52
2019-01-26T17:46:36.775Z,79.93
2019-01-26T17:47:36.759Z,80.04
2019-01-26T17:48:36.817Z,79.62
2019-01-26T17:49:36.739Z,79.93
2019-01-26T17:50:42.175Z,80.24
2019-01-26T17:51:37.725Z,79.31
2019-01-26T17:52:40.496Z,79.11
2019-01-26T17:53:36.698Z,79.00
2019-01-26T17:54:36.702Z,79.52
2019-01-26T17:55:36.688Z,79.21
2019-01-26T17:56:36.667Z,79.21
2019-01-26T17:57:36.656Z,79.11
2019-01-26T17:58:36.648Z,78.90
2019-01-26T17:59:36.663Z,79.00
2019-01-26T18:00:36.629Z,79.11
2019-01-26T18:01:36.619Z,78.49
2019-01-26T18:02:36.605Z,78.69
2019-01-26T18:03:37.075Z,78.49
2019-01-26T18:04:36.600Z,78.49
2019-01-26T18:05:36.581Z,79.11
2019-01-26T18:06:36.563Z,79.00
2019-01-26T18:07:36.557Z,78.59
2019-01-26T18:08:36.543Z,78.49
2019-01-26T18:09:36.565Z,78.28
2019-01-26T18:10:36.524Z,78.38
2019-01-26T18:11:36.513Z,77.87
2019-01-26T18:12:36.509Z,77.76
2019-01-26T18:13:36.498Z,78.80
2019-01-26T18:14:36.503Z,77.83
2019-01-26T18:15:36.476Z,77.66
2019-01-26T18:16:36.465Z,77.97
2019-01-26T18:17:36.452Z,78.08
2019-01-26T18:18:36.445Z,77.66
2019-01-26T18:19:36.440Z,77.15
2019-01-26T18:20:36.443Z,77.45
2019-01-26T18:21:36.412Z,77.45
2019-01-26T18:22:36.398Z,77.15
2019-01-26T18:23:36.390Z,76.73
2019-01-26T18:24:36.379Z,77.25
2019-01-26T18:25:36.390Z,77.01
2019-01-26T18:26:36.365Z,76.80
2019-01-26T18:27:36.346Z,77.45
2019-01-26T18:28:36.337Z,77.04
2019-01-26T18:29:36.328Z,77.45
2019-01-26T18:30:36.349Z,76.84
2019-01-26T18:31:36.306Z,76.70
2019-01-26T18:32:36.302Z,76.90
2019-01-26T18:33:36.293Z,76.70
2019-01-26T18:34:36.274Z,76.94
2019-01-26T18:35:36.298Z,76.84
2019-01-26T18:36:36.256Z,76.73
2019-01-26T18:37:36.245Z,76.53
2019-01-26T18:38:36.249Z,76.63
2019-01-26T18:39:36.228Z,76.63
2019-01-26T18:40:36.252Z,76.49
2019-01-26T18:41:36.212Z,76.49
2019-01-26T18:42:37.090Z,76.29
2019-01-26T18:43:36.181Z,76.18
2019-01-26T18:44:36.176Z,76.12
2019-01-26T18:45:36.164Z,76.59
2019-01-26T18:46:36.175Z,76.49
2019-01-26T18:47:36.140Z,76.49
2019-01-26T18:48:36.138Z,75.77
2019-01-26T18:49:36.123Z,75.77
2019-01-26T18:50:36.109Z,75.46
2019-01-26T18:51:36.116Z,75.56
2019-01-26T18:52:36.089Z,75.56
2019-01-26T18:53:36.079Z,75.87
2019-01-26T18:54:36.067Z,75.77
2019-01-26T18:55:36.061Z,75.56
2019-01-26T18:56:36.066Z,75.46
2019-01-26T18:57:36.043Z,75.77
2019-01-26T18:58:36.032Z,75.77
2019-01-26T18:59:36.030Z,75.77
2019-01-26T19:00:36.016Z,75.98
2019-01-26T19:01:36.041Z,75.46
2019-01-26T19:02:35.993Z,74.84
2019-01-26T19:03:35.974Z,74.74
2019-01-26T19:04:35.977Z,75.05
2019-01-26T19:05:35.956Z,74.12
2019-01-26T19:06:35.946Z,75.15
2019-01-26T19:07:36.038Z,75.05
2019-01-26T19:08:35.944Z,74.95
2019-01-26T19:09:35.928Z,74.95
2019-01-26T19:10:35.922Z,74.84
2019-01-26T19:11:35.894Z,74.74
2019-01-26T19:12:35.917Z,74.12
2019-01-26T19:13:35.885Z,74.53
2019-01-26T19:14:35.868Z,74.63
2019-01-26T19:15:35.859Z,75.15
2019-01-26T19:16:35.858Z,74.33
2019-01-26T19:17:35.884Z,74.43
2019-01-26T19:18:35.830Z,74.84
2019-01-26T19:19:35.809Z,74.43